createdAt,value
2023-04-25T00:04:03.828Z,9.52
2023-04-25T00:08:12.477Z,9.52
2023-04-25T00:12:20.160Z,9.53
2023-04-25T00:16:28.102Z,9.52
2023-04-25T00:20:36.691Z,9.48
2023-04-25T00:24:44.941Z,9.42
2023-04-25T00:28:53.859Z,9.34
2023-04-25T00:33:01.174Z,9.30
2023-04-25T00:37:08.825Z,9.22
2023-04-25T00:41:16.818Z,9.17
2023-04-25T00:45:24.802Z,9.15
2023-04-25T00:49:32.590Z,9.15
2023-04-25T00:53:41.212Z,9.13
2023-04-25T00:57:49.489Z,9.12
2023-04-25T01:01:57.419Z,9.06
2023-04-25T01:06:05.498Z,9.01
2023-04-25T01:10:13.758Z,8.94
2023-04-25T01:14:21.542Z,8.88
2023-04-25T01:18:29.640Z,8.85
2023-04-25T01:22:37.454Z,8.85
2023-04-25T01:26:50.638Z,8.83
2023-04-25T01:30:58.805Z,8.76
2023-04-25T01:35:10.417Z,8.69
2023-04-25T01:39:18.247Z,8.62
2023-04-25T01:43:27.623Z,8.55
2023-04-25T01:47:36.252Z,8.51
2023-04-25T01:51:45.215Z,8.50
2023-04-25T01:55:55.111Z,8.48
2023-04-25T02:00:04.805Z,8.44
2023-04-25T02:04:12.868Z,8.39
2023-04-25T02:08:22.386Z,8.35
2023-04-25T02:12:31.218Z,8.28
2023-04-25T02:16:40.150Z,8.25
2023-04-25T02:20:47.986Z,8.27
2023-04-25T02:24:57.416Z,8.27
2023-04-25T02:29:07.314Z,8.23
2023-04-25T02:33:14.832Z,8.20
2023-04-25T02:37:22.582Z,8.18
2023-04-25T02:41:30.117Z,8.15
2023-04-25T02:45:38.884Z,8.12
2023-04-25T02:49:47.064Z,8.10
2023-04-25T02:53:55.951Z,8.11
2023-04-25T02:58:03.715Z,8.10
2023-04-25T03:02:13.882Z,8.07
2023-04-25T03:06:21.695Z,8.01
2023-04-25T03:10:29.467Z,7.98
2023-04-25T03:14:37.631Z,7.92
2023-04-25T03:18:45.748Z,7.88
2023-04-25T03:22:53.112Z,7.87
2023-04-25T03:27:01.559Z,7.91
2023-04-25T03:31:11.721Z,7.92
2023-04-25T03:35:19.788Z,7.92
2023-04-25T03:39:27.630Z,7.89
2023-04-25T03:43:35.567Z,7.87
2023-04-25T03:47:43.928Z,7.83
2023-04-25T03:51:51.758Z,7.80
2023-04-25T03:56:04.692Z,7.80
2023-04-25T04:00:17.672Z,7.84
2023-04-25T04:04:25.821Z,7.85
2023-04-25T04:08:34.484Z,7.85
2023-04-25T04:12:42.756Z,7.83
2023-04-25T04:16:50.403Z,7.83
2023-04-25T04:20:59.368Z,7.82
2023-04-25T04:25:08.523Z,7.82
2023-04-25T04:29:22.226Z,7.84
2023-04-25T04:33:30.789Z,7.88
2023-04-25T04:37:39.128Z,7.96
2023-04-25T04:41:47.496Z,8.02
2023-04-25T04:45:57.421Z,8.08
2023-04-25T04:50:08.300Z,8.11
2023-04-25T04:54:17.784Z,8.13
2023-04-25T04:58:30.261Z,8.16
2023-04-25T05:02:38.259Z,8.18
2023-04-25T05:06:48.661Z,8.22
2023-04-25T05:10:58.234Z,8.25
2023-04-25T05:15:06.729Z,8.33
2023-04-25T05:19:15.477Z,8.43
2023-04-25T05:23:23.231Z,8.53
2023-04-25T05:27:31.046Z,8.61
2023-04-25T05:31:40.206Z,8.68
2023-04-25T05:35:49.415Z,8.73
2023-04-25T05:39:57.591Z,8.75
2023-04-25T05:44:06.058Z,8.80
2023-04-25T05:48:14.431Z,8.85
2023-04-25T05:52:23.832Z,8.93
2023-04-25T05:56:31.806Z,9.06
2023-04-25T06:00:39.900Z,9.17
2023-04-25T06:04:48.048Z,9.24
2023-04-25T06:08:57.153Z,9.31
2023-04-25T06:13:04.988Z,9.40
2023-04-25T06:17:13.104Z,9.46
2023-04-25T06:21:21.176Z,9.51
2023-04-25T06:25:30.285Z,9.62
2023-04-25T06:29:39.631Z,9.72
2023-04-25T06:33:49.777Z,9.80
2023-04-25T06:37:57.482Z,9.87
2023-04-25T06:42:05.104Z,9.85
2023-04-25T06:46:13.565Z,9.81
2023-04-25T06:50:21.276Z,9.91
2023-04-25T06:54:30.927Z,9.95
2023-04-25T06:58:38.487Z,9.88
2023-04-25T07:02:46.905Z,10.03
2023-04-25T07:06:56.104Z,10.31
2023-04-25T07:11:04.076Z,10.62
2023-04-25T07:15:13.264Z,10.87
2023-04-25T07:19:20.869Z,11.09
2023-04-25T07:23:28.737Z,11.13
2023-04-25T07:27:36.547Z,11.13
2023-04-25T07:31:44.680Z,11.17
2023-04-25T07:35:54.296Z,11.28
2023-04-25T07:40:02.003Z,11.39
2023-04-25T07:44:09.818Z,11.56
2023-04-25T07:48:21.166Z,11.68
2023-04-25T07:52:29.239Z,11.77
2023-04-25T07:56:48.995Z,11.88
2023-04-25T08:00:59.962Z,11.98
2023-04-25T08:05:13.241Z,12.09
2023-04-25T08:09:21.085Z,12.19
2023-04-25T08:13:30.597Z,12.27
2023-04-25T08:17:38.209Z,12.33
2023-04-25T08:21:46.762Z,12.44
2023-04-25T08:25:55.186Z,12.48
2023-04-25T08:30:04.162Z,12.54
2023-04-25T08:34:12.527Z,12.62
2023-04-25T08:38:22.365Z,12.50
2023-04-25T08:42:31.277Z,12.50
2023-04-25T08:46:40.204Z,12.58
2023-04-25T08:50:53.845Z,12.73
2023-04-25T08:55:02.490Z,12.83
2023-04-25T08:59:12.549Z,12.92
2023-04-25T09:03:20.461Z,12.82
2023-04-25T09:07:28.400Z,12.60
2023-04-25T09:11:38.262Z,12.53
2023-04-25T09:15:56.958Z,12.51
2023-04-25T09:20:16.469Z,12.38
2023-04-25T09:24:34.481Z,12.28
2023-04-25T09:28:44.253Z,12.32
2023-04-25T09:32:51.718Z,12.42
2023-04-25T09:37:00.124Z,12.51
2023-04-25T09:41:08.010Z,12.45
2023-04-25T09:45:17.134Z,12.35
2023-04-25T09:49:25.817Z,12.50
2023-04-25T09:53:34.514Z,12.80
2023-04-25T09:57:42.260Z,12.89
2023-04-25T10:01:51.402Z,13.00
2023-04-25T10:06:01.452Z,13.25
2023-04-25T10:10:11.312Z,13.35
2023-04-25T10:14:20.461Z,13.02
2023-04-25T10:18:29.513Z,12.73
2023-04-25T10:22:40.009Z,12.72
2023-04-25T10:26:48.352Z,12.84
2023-04-25T10:31:06.902Z,13.11
2023-04-25T10:35:19.527Z,13.46
2023-04-25T10:39:29.704Z,13.83
2023-04-25T10:43:42.513Z,14.05
2023-04-25T10:47:50.503Z,14.17
2023-04-25T10:52:16.162Z,14.11
2023-04-25T10:56:24.876Z,13.94
2023-04-25T11:00:42.869Z,13.77
2023-04-25T11:04:57.621Z,13.78
2023-04-25T11:09:06.224Z,13.70
2023-04-25T11:13:15.738Z,13.64
2023-04-25T11:17:23.565Z,13.69
2023-04-25T11:21:33.210Z,13.68
2023-04-25T11:25:45.220Z,13.66
2023-04-25T11:29:53.447Z,13.67
2023-04-25T11:34:02.738Z,13.64
2023-04-25T11:38:11.222Z,13.63
2023-04-25T11:42:18.840Z,13.78
2023-04-25T11:46:30.306Z,13.92
2023-04-25T11:50:38.143Z,13.98
2023-04-25T11:54:46.140Z,13.91
2023-04-25T11:59:03.855Z,13.85
2023-04-25T12:03:17.901Z,13.86
2023-04-25T12:07:33.074Z,13.96
2023-04-25T12:11:47.158Z,13.88
2023-04-25T12:15:56.455Z,13.64
2023-04-25T12:20:04.334Z,13.56
2023-04-25T12:24:20.176Z,13.61
2023-04-25T12:28:29.480Z,13.84
2023-04-25T12:32:37.888Z,14.12
2023-04-25T12:36:46.978Z,14.18
2023-04-25T12:40:55.593Z,14.16
2023-04-25T12:45:03.480Z,13.97
2023-04-25T12:53:26.419Z,13.66
2023-04-25T12:57:34.603Z,13.54
2023-04-25T13:01:42.370Z,13.61
2023-04-25T13:05:51.622Z,13.60
2023-04-25T13:10:00.472Z,13.64
2023-04-25T13:14:10.597Z,13.66
2023-04-25T13:18:19.465Z,13.62
2023-04-25T13:22:28.819Z,13.66
2023-04-25T13:26:38.383Z,13.76
2023-04-25T13:30:48.245Z,13.98
2023-04-25T13:34:57.157Z,14.58
2023-04-25T13:39:06.317Z,14.86
2023-04-25T13:43:14.084Z,14.68
2023-04-25T13:47:25.577Z,14.22
2023-04-25T13:51:33.303Z,13.84
2023-04-25T13:55:41.626Z,13.73
2023-04-25T13:59:49.466Z,13.84
2023-04-25T14:03:56.993Z,14.07
2023-04-25T14:08:06.706Z,14.08
2023-04-25T14:12:14.537Z,14.01
2023-04-25T14:16:23.883Z,14.18
2023-04-25T14:20:32.368Z,14.24
2023-04-25T14:24:41.182Z,14.10
2023-04-25T14:28:48.914Z,13.89
2023-04-25T14:32:56.848Z,13.58
2023-04-25T14:37:04.446Z,13.21
2023-04-25T14:41:12.131Z,12.80
2023-04-25T14:45:21.540Z,12.41
2023-04-25T14:49:30.310Z,12.25
2023-04-25T14:53:38.324Z,12.23
2023-04-25T14:57:47.123Z,12.31
2023-04-25T15:01:59.784Z,12.42
2023-04-25T15:06:08.678Z,12.54
2023-04-25T15:10:17.702Z,12.56
2023-04-25T15:14:25.297Z,12.45
2023-04-25T15:18:33.224Z,12.34
2023-04-25T15:22:42.409Z,12.28
2023-04-25T15:26:50.701Z,12.22
2023-04-25T15:30:58.591Z,12.18
2023-04-25T15:35:09.520Z,12.13
2023-04-25T15:39:18.262Z,12.02
2023-04-25T15:43:26.426Z,11.94
2023-04-25T15:47:34.285Z,11.90
2023-04-25T15:51:42.543Z,11.87
2023-04-25T15:55:50.464Z,11.82
2023-04-25T15:59:58.193Z,11.77
2023-04-25T16:04:07.072Z,11.67
2023-04-25T16:08:15.046Z,11.47
2023-04-25T16:12:22.942Z,11.23
2023-04-25T16:16:30.990Z,11.03
2023-04-25T16:20:38.817Z,10.89
2023-04-25T16:24:46.826Z,10.76
2023-04-25T16:28:54.530Z,10.64
2023-04-25T16:33:02.604Z,10.53
2023-04-25T16:37:10.716Z,10.41
2023-04-25T16:41:18.789Z,10.22
2023-04-25T16:45:27.056Z,10.09
2023-04-25T16:49:34.809Z,10.03
2023-04-25T16:53:42.712Z,9.98
2023-04-25T16:57:50.157Z,9.93
2023-04-25T17:01:58.584Z,9.84
2023-04-25T17:06:07.996Z,9.76
2023-04-25T17:10:15.344Z,9.71
2023-04-25T17:14:23.584Z,9.65
2023-04-25T17:18:33.556Z,9.57
2023-04-25T17:22:41.290Z,9.51
2023-04-25T17:26:49.192Z,9.45
2023-04-25T17:30:57.778Z,9.39
2023-04-25T17:35:05.693Z,9.28
2023-04-25T17:39:17.761Z,9.16
2023-04-25T17:43:28.106Z,9.09
2023-04-25T17:47:35.718Z,9.05
2023-04-25T17:51:43.991Z,9.08
2023-04-25T17:55:52.237Z,9.13
2023-04-25T18:00:02.914Z,9.15
2023-04-25T18:04:14.408Z,9.16
2023-04-25T18:08:23.212Z,9.11
2023-04-25T18:12:30.652Z,9.05
2023-04-25T18:16:38.665Z,9.01
2023-04-25T18:20:47.032Z,8.95
2023-04-25T18:24:55.601Z,8.90
2023-04-25T18:29:03.828Z,8.86
2023-04-25T18:33:11.647Z,8.86
2023-04-25T18:37:20.204Z,8.87
2023-04-25T18:41:51.868Z,8.87
2023-04-25T18:45:56.560Z,8.84
2023-04-25T18:50:06.909Z,8.79
2023-04-25T18:54:15.049Z,8.74
2023-04-25T18:58:23.683Z,8.65
2023-04-25T19:02:31.573Z,8.58
2023-04-25T19:06:42.086Z,8.55
2023-04-25T19:10:50.783Z,8.57
2023-04-25T19:14:59.342Z,8.55
2023-04-25T19:19:09.001Z,8.47
2023-04-25T19:23:16.764Z,8.38
2023-04-25T19:27:24.587Z,8.25
2023-04-25T19:31:32.044Z,8.12
2023-04-25T19:35:39.769Z,8.00
2023-04-25T19:39:48.142Z,7.86
2023-04-25T19:44:00.195Z,7.77
2023-04-25T19:48:10.390Z,7.72
2023-04-25T19:52:18.482Z,7.70
2023-04-25T19:56:27.305Z,7.61
2023-04-25T20:00:35.527Z,7.58
2023-04-25T20:04:43.783Z,7.54
2023-04-25T20:08:54.405Z,7.44
2023-04-25T20:13:03.141Z,7.37
2023-04-25T20:17:12.646Z,7.33
2023-04-25T20:21:21.885Z,7.30
2023-04-25T20:25:30.334Z,7.30
2023-04-25T20:29:38.462Z,7.27
2023-04-25T20:33:45.865Z,7.22
2023-04-25T20:37:53.873Z,7.16
2023-04-25T20:42:01.836Z,7.08
2023-04-25T20:46:10.657Z,6.98
2023-04-25T20:50:19.403Z,6.85
2023-04-25T20:54:27.363Z,6.70
2023-04-25T20:58:35.978Z,6.56
2023-04-25T21:02:44.264Z,6.44
2023-04-25T21:06:51.804Z,6.35
2023-04-25T21:10:59.666Z,6.27
2023-04-25T21:15:08.888Z,6.26
2023-04-25T21:19:17.815Z,6.26
2023-04-25T21:23:30.047Z,6.23
2023-04-25T21:27:38.385Z,6.17
2023-04-25T21:31:48.261Z,6.13
2023-04-25T21:35:57.255Z,6.08
2023-04-25T21:40:06.157Z,5.99
2023-04-25T21:44:14.632Z,5.94
2023-04-25T21:48:25.587Z,5.89
2023-04-25T21:52:33.718Z,5.82
2023-04-25T21:56:43.417Z,5.77
2023-04-25T22:00:52.108Z,5.72
2023-04-25T22:05:00.421Z,5.71
2023-04-25T22:09:12.420Z,5.69
2023-04-25T22:13:23.108Z,5.67
2023-04-25T22:17:31.634Z,5.58
2023-04-25T22:21:39.807Z,5.48
2023-04-25T22:25:47.732Z,5.40
2023-04-25T22:29:55.632Z,5.28
2023-04-25T22:34:04.511Z,5.18
2023-04-25T22:38:13.349Z,5.13
2023-04-25T22:42:20.671Z,5.07
2023-04-25T22:46:28.897Z,5.03
2023-04-25T22:50:39.753Z,4.97
2023-04-25T22:54:47.620Z,4.90
2023-04-25T22:58:55.605Z,4.79
2023-04-25T23:13:04.721Z,4.78
2023-04-25T23:17:12.791Z,4.80
2023-04-25T23:21:23.363Z,4.78
2023-04-25T23:25:32.597Z,4.73
2023-04-25T23:29:41.292Z,4.68
2023-04-25T23:33:49.214Z,4.68
2023-04-25T23:37:57.600Z,4.72
2023-04-25T23:42:05.126Z,4.74
2023-04-25T23:46:14.124Z,4.70
2023-04-25T23:50:22.280Z,4.65
2023-04-25T23:54:30.765Z,4.59
2023-04-25T23:58:39.685Z,4.50
